AirNav   SIMCOM
 
 281 users online  

TX30 H E B Hospital Heliport
Bedford, Texas, USA

GOING TO BEDFORD?


FAA INFORMATION EFFECTIVE 20 JULY 2017

Location

FAA Identifier: TX30
Lat/Long: 32-50-02.4100N / 097-07-21.4200W
32-50.040167N / 097-07.357000W
32.8340028 / -97.1226167
(estimated)
Elevation: 552 ft. / 168 m (estimated)
Variation: 07E (1985)
From city: 1 mile E of BEDFORD, TX
Time zone: UTC -5 (UTC -6 during Standard Time)
Zip code: 76022

Heliport Operations

Heliport use: Private use, MEDICAL.
Activation date: 10/1973
Control tower: no
ARTCC: FORT WORTH CENTER
FSS: FORT WORTH FLIGHT SERVICE STATION
Attendance: CONTINUOUS
Wind indicator: yes
Segmented circle: no

Heliport Communications

WX ASOS at DFW (6 nm NE): PHONE 972-615-2608
WX AWOS-3 at GPM (9 nm SE): 118.475 (972-606-1433)
WX ASOS at GKY (10 nm S): 127.375 (817-557-0251)
WX ASOS at FTW (12 nm W): PHONE 817-740-3346
WX ASOS at AFW (14 nm NW): PHONE 817-491-6188
WX ASOS at DAL (14 nm E): PHONE 214-353-1551
WX ASOS at RBD (16 nm SE): PHONE 214-330-5317
WX AWOS-3 at ADS (17 nm NE): PHONE 972-386-4855
WX AWOS-3 at 49T (17 nm E): 135.425 (214-670-1243)
WX AWOS-3 at FWS (19 nm SW): 120.025 (817-426-4172)

Nearby radio navigation aids

VOR radial/distance  VOR name  Freq  Var
FUZr133/4.4RANGER VORTAC115.7006E
TTTr237/4.6MAVERICK VOR/DME113.1006E
CVEr247/11.5COWBOY VOR/DME116.2006E

 
NDB name  Hdg/Dist  Freq  Var  ID
MUFIN114/13.136508WFT ..-. -
MESQUITE270/30.024803EPQF .--. --.- ..-.
JECCA282/31.438806EJUG .--- ..- --.
MELISA223/37.142103EVLY ...- .-.. -.--

Heliport Services

Airframe service: NONE
Powerplant service: NONE

Runway Information

Helipad H1

Dimensions: 60 x 60 ft. / 18 x 18 m
Surface: concrete
Latitude: 32-50.040167N
Longitude: 097-07.357000W
Elevation: 552.0 ft.
Traffic pattern: leftleft

Heliport Ownership and Management from official FAA records

Ownership: Privately-owned
Owner: TX HEALTH HARRIS METHODIST HOSPITAL
1600 HOSPITAL PARKWAY
BEDFORD, TX 76022-6913
Phone 817-685-4000
Manager: RICK SCIVALLY
1600 HOSPITAL PARKWAY
BEDFORD, TX 76022
Phone 817-848-4818
SAFETY OFFICER.

Heliport Operational Statistics

Aircraft based on the field: 1
Helicopters: 1
    

Additional Remarks

A52-H1 BLDG 72' NW; LGTD BLDG 130' NW; UNLGTD ANT ON BLDG 230' NW; TREE N

Instrument Procedures

There are no published instrument procedures at TX30.

Some nearby airports with instrument procedures:

KDFW - Dallas-Fort Worth International Airport (6 nm NE)
KGPM - Grand Prairie Municipal Airport (9 nm SE)
KGKY - Arlington Municipal Airport (10 nm S)
KFTW - Fort Worth Meacham International Airport (12 nm W)
KAFW - Fort Worth Alliance Airport (14 nm NW)
KDAL - Dallas Love Field Airport (14 nm E)
KRBD - Dallas Executive Airport (16 nm SE)
KADS - Addison Airport (17 nm NE)
KNFW - Fort Worth Naval Air Station JRB (Carswell Field) Airport (17 nm W)
KFWS - Fort Worth Spinks Airport (19 nm SW)
 
Loc | Ops | Rwys | IFR | FBO | Links
Com | Nav | Svcs | Stats | Notes

Lake Texoma Jet Center
AirBoss

 
Area around TX30 (H E B Hospital Heliport)
 
Road maps at: MapQuest Bing Google
 
Aerial photo
No photo
 
Sectional chart

 
Airport distance calculator
Flying to H E B Hospital Heliport? Find the distance to fly.

From to TX30

Sunrise and sunset
Times for 23-Jul-2017
 Local
(UTC-5)
 Zulu
(UTC)
Morning civil twilight06:1011:10
Sunrise06:3711:37
Sunset20:3301:33
Evening civil twilight21:0002:00

Current date and time
Zulu (UTC)  23-Jul-2017 08:02:31
Local (UTC-5)  23-Jul-2017 03:02:31
 
METAR
KDFW 
7nm NE 
230753Z 19010KT 10SM FEW250 28/22 A2986 RMK AO2 SLP101 T02830222
KGPM 
9nm SE 
230755Z AUTO 17009KT 10SM CLR 28/21 A2989 RMK AO2 T02810211
KGKY 
10nm S 
230753Z AUTO 16007KT 10SM CLR 27/23 A2988 RMK AO2 SLP107 T02720228
KFTW 
12nm W 
230753Z 17010KT 10SM CLR 29/23 A2987 RMK AO2 SLP103 T02890228
KAFW 
13nm NW 
230753Z 18006KT 10SM CLR 28/22 A2987 RMK AO2 SLP095 T02780217
KDAL 
14nm E 
230753Z 19008KT 10SM FEW250 29/22 A2987 RMK AO2 SLP107 T02890217
KRBD 
16nm SE 
230753Z AUTO 18006KT 10SM CLR 28/22 A2987 RMK AO2 SLP105 T02780222
KNFW 
17nm W 
230752Z AUTO 17011KT 10SM CLR 28/22 A2987 RMK AO2 SLP100 T02830217 $
KADS 
17nm NE 
230755Z AUTO 19006KT 10SM CLR 28/22 A2990 RMK AO2 T02830218
KFWS 
18nm SW 
230755Z AUTO 18008KT 10SM CLR 27/22 A2989 RMK AO2 T02700215
TAF
KDFW 
7nm NE 
230535Z 2306/2412 17011KT P6SM FEW100 FM232100 20008KT P6SM VCTS SCT060CB FM240100 15009KT P6SM FEW080 SCT250
KGKY 
10nm S 
230535Z 2306/2406 17011KT P6SM FEW100 FM232100 20008KT P6SM VCTS SCT060CB FM240100 15009KT P6SM FEW080 SCT250
KFTW 
12nm W 
230535Z 2306/2406 17011KT P6SM FEW100 FM232100 20008KT P6SM VCTS SCT060CB FM240100 15009KT P6SM FEW080 SCT250
KAFW 
13nm NW 
230535Z 2306/2406 17011KT P6SM FEW100 FM232100 20008KT P6SM VCTS SCT060CB FM240100 15009KT P6SM FEW080 SCT250
KDAL 
14nm E 
230535Z 2306/2406 17011KT P6SM FEW100 FM232100 20008KT P6SM VCTS SCT060CB FM240100 15009KT P6SM FEW080 SCT250
KNFW 
17nm W 
2223/2323 17009KT 9999 FEW050 QNH2981INS BECMG 2315/2317 20007KT 9999 FEW030 QNH2980INS FM232100 17008KT 9999 FEW030 SCT200 QNH2979INS T27/2312Z T38/2321Z FN00188
NOTAMs
Click for the latest NOTAMs
NOTAMs are issued by the DoD/FAA and will open in a separate window not controlled by AirNav.

 

 
 

Would you like to see your business listed on this page?

 If your business provides an interesting product or service to pilots, flight crews, aircraft, or users of the H E B Hospital Heliport, you should consider listing it here.  To start the listing process, click on the button below
 
Add a business
 

Other Pages about H E B Hospital Heliport

Update a link
 
Copyright © AirNav, LLC. All rights reserved. Privacy Policy  Contact